Time;durP1;ratioP1;P1;durP2;ratioP2;P2;SDS_P1;SDS_P2;PMS_P1;PMS_P2;Temp;Humidity;BMP_temperature;BMP_pressure;BME280_temperature;BME280_humidity;BME280_pressure;Samples;Min_cycle;Max_cycle;Signal;HPM_P1;HPM_P2
2023/03/03 00:02:16;;;;;;;26.40;18.90;;;;;;;1.27;95.09;97417.92;110211;1242;69277;-66
2023/03/03 00:04:46;;;;;;;25.60;16.80;;;;;;;1.19;95.41;97416.31;110187;1242;59737;-65
2023/03/03 00:07:21;;;;;;;26.70;17.70;;;;;;;1.13;92.99;97413.94;110192;1242;59641;-67
2023/03/03 00:09:51;;;;;;;25.10;18.10;;;;;;;1.06;93.46;97407.34;110199;1242;71368;-67
2023/03/03 00:12:29;;;;;;;25.50;19.40;;;;;;;0.96;96.20;97402.69;110261;1242;69397;-67
2023/03/03 00:14:59;;;;;;;29.30;19.90;;;;;;;0.88;95.88;97403.52;110203;1242;69898;-67
2023/03/03 00:17:31;;;;;;;30.50;20.00;;;;;;;0.77;98.07;97400.11;110202;1242;59735;-67
2023/03/03 00:20:35;;;;;;;25.10;19.00;;;;;;;0.70;98.32;97396.04;110307;1241;59669;-67
2023/03/03 00:23:29;;;;;;;29.30;19.40;;;;;;;0.62;99.12;97401.29;110303;1241;71343;-65
2023/03/03 00:26:04;;;;;;;23.60;17.90;;;;;;;0.58;98.76;97405.55;110294;1241;69225;-66
2023/03/03 00:28:51;;;;;;;30.30;19.90;;;;;;;0.55;99.39;97402.88;110340;1241;69260;-66
2023/03/03 00:31:35;;;;;;;28.70;18.50;;;;;;;0.54;100.00;97402.44;110183;1241;59841;-66
2023/03/03 00:34:16;;;;;;;25.40;18.80;;;;;;;0.49;99.82;97396.38;110183;1242;59693;-66
2023/03/03 00:36:50;;;;;;;30.60;19.80;;;;;;;0.46;100.00;97398.20;110216;1242;70593;-66
2023/03/03 00:39:36;;;;;;;27.40;21.30;;;;;;;0.45;100.00;97398.74;110213;1241;68494;-66
2023/03/03 00:42:16;;;;;;;35.60;23.30;;;;;;;0.46;100.00;97398.55;110356;1242;69144;-65
2023/03/03 00:45:00;;;;;;;45.70;27.40;;;;;;;0.43;100.00;97395.05;110243;1241;59712;-66
2023/03/03 00:47:31;;;;;;;48.20;29.10;;;;;;;0.39;100.00;97396.02;110366;1240;59663;-66
2023/03/03 00:50:11;;;;;;;61.40;32.70;;;;;;;0.37;100.00;97399.19;110293;1240;70651;-66
2023/03/03 00:52:57;;;;;;;41.60;24.30;;;;;;;0.37;99.16;97394.05;110216;1242;68145;-66
2023/03/03 00:55:29;;;;;;;33.60;22.30;;;;;;;0.43;100.00;97397.80;110187;1241;70090;-65
2023/03/03 00:58:00;;;;;;;43.80;28.20;;;;;;;0.49;100.00;97395.21;110256;1241;59671;-66
2023/03/03 01:00:36;;;;;;;53.10;32.20;;;;;;;0.53;100.00;97393.69;110347;1241;59678;-65
2023/03/03 01:03:20;;;;;;;61.80;35.20;;;;;;;0.57;100.00;97391.34;110328;1241;71276;-66
2023/03/03 01:05:52;;;;;;;60.80;35.10;;;;;;;0.62;100.00;97385.18;110256;1240;69298;-66
2023/03/03 01:08:23;;;;;;;58.20;36.00;;;;;;;0.66;100.00;97384.17;110316;1241;69681;-66
2023/03/03 01:10:59;;;;;;;42.40;27.60;;;;;;;0.72;100.00;97377.79;110213;1242;59682;-66
2023/03/03 01:13:33;;;;;;;38.50;22.90;;;;;;;0.79;100.00;97375.14;110239;1242;59633;-66
2023/03/03 01:16:06;;;;;;;36.60;25.30;;;;;;;0.85;100.00;97376.65;110209;1240;71757;-66
2023/03/03 01:18:39;;;;;;;35.40;22.20;;;;;;;0.93;100.00;97373.45;110245;1241;69040;-67
2023/03/03 01:21:10;;;;;;;33.20;21.20;;;;;;;1.00;100.00;97374.42;110300;1248;69123;-67
2023/03/03 01:23:40;;;;;;;32.90;23.60;;;;;;;1.06;98.49;97379.04;110350;1241;59760;-67
2023/03/03 01:26:10;;;;;;;31.60;19.70;;;;;;;1.10;97.31;97378.89;110372;1241;59640;-68
2023/03/03 01:28:42;;;;;;;32.50;21.80;;;;;;;1.13;95.85;97380.14;110513;1241;71638;-67
2023/03/03 01:31:13;;;;;;;27.00;19.30;;;;;;;1.14;94.93;97378.20;110188;1245;69075;-67
2023/03/03 01:33:43;;;;;;;36.50;25.60;;;;;;;1.15;96.79;97374.05;110224;1242;68440;-68
2023/03/03 01:36:14;;;;;;;36.40;24.00;;;;;;;1.16;99.33;97372.98;110162;1241;59699;-66
2023/03/03 01:38:43;;;;;;;45.10;29.20;;;;;;;1.17;99.50;97368.16;110288;1242;59715;-66
2023/03/03 01:41:14;;;;;;;52.30;31.80;;;;;;;1.17;99.97;97368.32;110195;1241;71269;-67
2023/03/03 01:43:48;;;;;;;36.90;23.80;;;;;;;1.21;99.79;97367.49;110193;1242;68482;-67
2023/03/03 01:46:24;;;;;;;31.60;21.40;;;;;;;1.27;99.57;97363.66;110207;1241;69192;-66
2023/03/03 01:49:02;;;;;;;34.30;22.00;;;;;;;1.32;96.17;97363.84;110305;1241;59729;-66
2023/03/03 01:51:37;;;;;;;36.60;25.10;;;;;;;1.32;95.09;97362.80;110126;1244;59700;-66
2023/03/03 01:54:16;;;;;;;34.80;23.30;;;;;;;1.31;96.48;97364.39;110294;1241;71243;-66
2023/03/03 01:56:52;;;;;;;35.00;23.00;;;;;;;1.30;95.12;97360.11;110300;1241;68410;-66
2023/03/03 01:59:33;;;;;;;39.50;25.10;;;;;;;1.29;94.76;97358.45;110168;1241;68637;-67
2023/03/03 02:02:04;;;;;;;40.10;26.80;;;;;;;1.27;97.18;97353.20;110139;1245;59715;-66
2023/03/03 02:04:35;;;;;;;33.30;23.00;;;;;;;1.29;98.62;97354.15;110297;1240;59738;-66
2023/03/03 02:07:10;;;;;;;32.60;22.30;;;;;;;1.33;98.53;97354.70;110326;1241;71458;-66
2023/03/03 02:09:53;;;;;;;34.90;21.80;;;;;;;1.35;96.59;97355.16;110240;1242;69291;-66
2023/03/03 02:12:42;;;;;;;29.90;21.30;;;;;;;1.36;95.65;97356.98;110130;1240;68533;-66
2023/03/03 02:15:36;;;;;;;29.20;19.70;;;;;;;1.37;94.26;97353.52;110121;1248;59709;-67
2023/03/03 02:18:13;;;;;;;29.60;21.00;;;;;;;1.37;96.81;97351.61;110244;1240;59766;-67
2023/03/03 02:21:01;;;;;;;33.90;24.00;;;;;;;1.40;99.83;97349.29;110214;1242;71224;-66
2023/03/03 02:23:44;;;;;;;32.70;22.00;;;;;;;1.44;100.00;97348.77;110202;1243;68882;-66
2023/03/03 02:26:22;;;;;;;33.80;21.60;;;;;;;1.49;100.00;97357.33;110441;1239;68584;-66
2023/03/03 02:28:54;;;;;;;34.00;23.50;;;;;;;1.54;100.00;97356.83;110170;1243;59673;-66
2023/03/03 02:31:28;;;;;;;30.90;23.90;;;;;;;1.60;100.00;97355.59;110147;1244;59716;-67
2023/03/03 02:33:58;;;;;;;37.30;24.10;;;;;;;1.63;100.00;97353.95;110166;1241;71377;-66
2023/03/03 02:36:32;;;;;;;31.90;23.50;;;;;;;1.63;99.79;97351.71;110096;1245;68406;-67
2023/03/03 02:39:21;;;;;;;39.60;26.70;;;;;;;1.62;98.78;97352.42;110076;1244;69330;-66
2023/03/03 02:42:19;;;;;;;34.60;24.20;;;;;;;1.56;99.79;97350.94;110197;1242;59785;-66
2023/03/03 02:44:55;;;;;;;37.60;24.10;;;;;;;1.52;99.88;97347.63;110081;1245;59775;-66
2023/03/03 02:47:27;;;;;;;31.80;22.80;;;;;;;1.50;100.00;97342.05;110199;1240;71383;-67
2023/03/03 02:49:57;;;;;;;31.70;23.00;;;;;;;1.51;100.00;97342.34;110305;1241;68477;-66
2023/03/03 02:52:28;;;;;;;38.60;25.70;;;;;;;1.55;100.00;97341.18;110297;1242;69898;-67
2023/03/03 02:55:00;;;;;;;35.00;24.40;;;;;;;1.57;100.00;97336.80;110125;1245;59698;-66
2023/03/03 02:57:31;;;;;;;35.60;24.00;;;;;;;1.61;100.00;97336.99;110299;1241;59728;-65
2023/03/03 03:00:05;;;;;;;34.30;25.70;;;;;;;1.63;100.00;97336.06;110290;1242;70575;-67
2023/03/03 03:02:36;;;;;;;36.30;26.70;;;;;;;1.61;100.00;97334.41;110104;1241;69169;-66
2023/03/03 03:05:08;;;;;;;33.60;23.70;;;;;;;1.59;100.00;97331.59;110191;1242;69303;-66
2023/03/03 03:07:39;;;;;;;34.00;24.30;;;;;;;1.58;100.00;97327.30;110181;1240;59753;-65
2023/03/03 03:10:10;;;;;;;43.30;27.20;;;;;;;1.57;100.00;97332.34;110085;1241;59699;-66
2023/03/03 03:12:41;;;;;;;36.60;26.00;;;;;;;1.51;100.00;97332.02;110099;1240;70652;-65
2023/03/03 03:15:11;;;;;;;32.00;23.60;;;;;;;1.48;100.00;97335.23;110162;1242;67660;-65
2023/03/03 03:17:41;;;;;;;;;;;;;;;1.47;100.00;97334.41;110132;1241;68553;-66
2023/03/03 03:20:13;;;;;;;30.50;21.40;;;;;;;1.48;100.00;97334.05;110129;1241;59676;-66
2023/03/03 03:22:43;;;;;;;36.80;25.80;;;;;;;1.48;100.00;97331.95;110072;1244;59653;-66
2023/03/03 03:25:14;;;;;;;34.10;24.70;;;;;;;1.49;100.00;97333.98;110259;1240;70912;-66
2023/03/03 03:27:45;;;;;;;36.00;23.70;;;;;;;1.51;100.00;97334.10;110113;1241;69550;-65
2023/03/03 03:30:19;;;;;;;35.80;24.40;;;;;;;1.51;100.00;97332.73;110115;1241;69360;-66
2023/03/03 03:32:50;;;;;;;33.60;22.80;;;;;;;1.52;100.00;97331.46;110050;1245;59770;-66
2023/03/03 03:35:21;;;;;;;30.20;21.30;;;;;;;1.54;100.00;97328.52;110192;1242;59687;-66
2023/03/03 03:37:53;;;;;;;32.00;22.80;;;;;;;1.56;100.00;97329.98;110104;1244;71217;-66
2023/03/03 03:40:25;;;;;;;32.30;22.60;;;;;;;1.58;100.00;97325.79;110182;1242;69073;-66
2023/03/03 03:42:55;;;;;;;38.10;24.90;;;;;;;1.59;100.00;97319.88;110292;1241;68862;-66
2023/03/03 03:45:25;;;;;;;34.30;23.90;;;;;;;1.62;100.00;97321.31;110353;1241;60072;-66
2023/03/03 03:47:57;;;;;;;33.90;23.90;;;;;;;1.63;100.00;97322.83;110346;1241;59652;-66
2023/03/03 03:50:28;;;;;;;40.10;25.40;;;;;;;1.63;100.00;97319.05;110292;1240;71636;-67
2023/03/03 03:52:58;;;;;;;;;;;;;;;1.65;100.00;97317.59;110224;1242;69105;-67
2023/03/03 03:55:28;;;;;;;30.00;22.00;;;;;;;1.68;100.00;97313.87;110150;1245;68511;-67
2023/03/03 03:57:58;;;;;;;32.90;22.40;;;;;;;1.72;100.00;97315.07;110122;1241;59759;-68
2023/03/03 04:00:28;;;;;;;43.40;27.10;;;;;;;1.74;100.00;97313.78;110145;1241;59726;-67
2023/03/03 04:02:57;;;;;;;34.40;23.10;;;;;;;1.75;100.00;97314.62;110155;1240;70617;-67
2023/03/03 04:05:28;;;;;;;31.80;22.40;;;;;;;1.76;100.00;97312.16;110357;1242;68540;-65
2023/03/03 04:07:59;;;;;;;35.00;24.00;;;;;;;1.79;100.00;97312.59;110322;1242;68329;-68
2023/03/03 04:10:30;;;;;;;37.70;26.60;;;;;;;1.80;99.24;97311.15;110116;1240;59700;-67
2023/03/03 04:13:00;;;;;;;37.50;25.40;;;;;;;1.80;100.00;97309.61;110423;1240;59678;-66
2023/03/03 04:15:30;;;;;;;39.20;26.70;;;;;;;1.81;100.00;97308.73;110413;1242;71449;-68
2023/03/03 04:17:59;;;;;;;35.20;25.30;;;;;;;1.82;100.00;97308.16;110201;1243;68170;-68
2023/03/03 04:20:29;;;;;;;38.50;26.10;;;;;;;1.82;100.00;97308.50;110189;1244;69879;-67
2023/03/03 04:22:58;;;;;;;35.60;24.00;;;;;;;1.82;100.00;97305.61;110286;1241;59695;-66
2023/03/03 04:25:28;;;;;;;38.20;24.90;;;;;;;1.82;100.00;97307.32;110337;1244;59679;-66
2023/03/03 04:27:58;;;;;;;38.60;25.60;;;;;;;1.83;100.00;97309.16;110323;1242;71547;-67
2023/03/03 04:30:28;;;;;;;;;;;;;;;1.80;100.00;97311.69;110272;1242;69212;-68
2023/03/03 04:32:58;;;;;;;33.60;23.70;;;;;;;1.76;100.00;97310.62;110200;1242;69252;-66
2023/03/03 04:35:28;;;;;;;30.90;20.20;;;;;;;1.75;100.00;97308.08;110162;1245;59744;-66
2023/03/03 04:38:00;;;;;;;34.60;24.50;;;;;;;1.77;100.00;97308.54;110371;1238;59696;-66
2023/03/03 04:40:30;;;;;;;39.30;26.10;;;;;;;1.77;100.00;97309.88;110372;1242;71921;-66
2023/03/03 04:43:00;;;;;;;35.60;23.90;;;;;;;1.79;100.00;97309.14;110173;1241;67480;-66
2023/03/03 04:45:29;;;;;;;35.80;25.00;;;;;;;1.81;100.00;97303.92;110142;1242;69849;-66
2023/03/03 04:47:58;;;;;;;34.30;23.30;;;;;;;1.83;100.00;97305.19;110397;1242;59738;-66
2023/03/03 04:50:28;;;;;;;31.60;22.40;;;;;;;1.86;100.00;97305.61;110176;1240;59750;-66
2023/03/03 04:52:58;;;;;;;33.10;21.20;;;;;;;1.87;100.00;97306.40;110470;1241;71189;-66
2023/03/03 04:55:28;;;;;;;30.50;22.70;;;;;;;1.90;100.00;97304.77;110411;1242;69581;-66
2023/03/03 04:57:59;;;;;;;33.50;21.80;;;;;;;1.90;100.00;97307.15;110379;1242;69194;-66
2023/03/03 05:00:29;;;;;;;34.90;23.80;;;;;;;1.92;100.00;97302.45;110393;1242;59744;-66
2023/03/03 05:02:59;;;;;;;35.10;23.00;;;;;;;1.94;100.00;97304.23;110395;1238;59740;-67
2023/03/03 05:05:28;;;;;;;31.50;23.80;;;;;;;1.97;100.00;97302.23;110211;1242;71362;-67
2023/03/03 05:07:57;;;;;;;34.10;25.30;;;;;;;1.98;100.00;97305.11;110444;1242;69784;-67
2023/03/03 05:10:26;;;;;;;38.40;25.90;;;;;;;1.97;100.00;97308.40;110315;1240;69058;-67
2023/03/03 05:12:55;;;;;;;36.60;24.20;;;;;;;1.95;99.97;97303.67;110393;1240;59729;-67
2023/03/03 05:15:24;;;;;;;65.20;41.10;;;;;;;1.95;99.66;97305.39;110349;1241;59700;-67
2023/03/03 05:17:55;;;;;;;42.90;30.80;;;;;;;1.96;100.00;97307.92;110345;1242;72013;-67
2023/03/03 05:20:25;;;;;;;39.50;26.80;;;;;;;1.98;100.00;97308.36;110420;1242;69375;-67
2023/03/03 05:22:58;;;;;;;35.10;25.60;;;;;;;2.01;100.00;97308.77;110192;1245;68542;-67
2023/03/03 05:25:28;;;;;;;37.90;24.60;;;;;;;2.03;100.00;97301.30;110168;1241;59743;-67
2023/03/03 05:27:58;;;;;;;36.30;27.10;;;;;;;2.05;100.00;97306.04;110182;1242;59682;-67
2023/03/03 05:30:26;;;;;;;34.10;25.20;;;;;;;2.09;100.00;97303.84;110186;1240;71320;-67
2023/03/03 05:32:58;;;;;;;33.30;23.90;;;;;;;2.11;100.00;97307.20;110180;1242;70228;-67
2023/03/03 05:35:27;;;;;;;34.40;25.30;;;;;;;2.13;100.00;97308.64;110245;1242;69282;-67
2023/03/03 05:37:57;;;;;;;34.00;24.40;;;;;;;2.15;100.00;97303.94;110184;1242;59760;-67
2023/03/03 05:40:27;;;;;;;35.90;24.40;;;;;;;2.17;100.00;97302.29;110180;1242;59676;-67
2023/03/03 05:42:57;;;;;;;37.40;25.20;;;;;;;2.20;100.00;97303.38;110180;1242;71407;-67
2023/03/03 05:45:26;;;;;;;37.00;25.30;;;;;;;2.24;100.00;97305.25;110200;1243;69063;-67
2023/03/03 05:47:55;;;;;;;41.20;30.60;;;;;;;2.28;99.82;97305.64;110202;1241;69185;-67
2023/03/03 05:50:25;;;;;;;52.20;33.60;;;;;;;2.31;99.91;97307.39;110183;1242;59695;-67
2023/03/03 05:52:54;;;;;;;43.90;31.30;;;;;;;2.35;100.00;97308.77;110193;1242;59643;-68
2023/03/03 05:55:24;;;;;;;37.40;26.60;;;;;;;2.40;100.00;97310.61;110274;1240;72003;-68
2023/03/03 05:57:54;;;;;;;39.60;27.40;;;;;;;2.43;100.00;97313.23;110270;1242;69215;-68
2023/03/03 06:00:23;;;;;;;40.30;29.60;;;;;;;2.46;99.50;97314.66;110261;1242;69217;-67
2023/03/03 06:02:52;;;;;;;38.70;28.20;;;;;;;2.44;98.94;97316.30;110166;1242;59693;-68
2023/03/03 06:05:21;;;;;;;38.50;27.40;;;;;;;2.45;99.53;97314.73;110202;1242;59751;-66
2023/03/03 06:07:50;;;;;;;41.10;29.10;;;;;;;2.45;100.00;97315.89;110273;1241;71473;-66
2023/03/03 06:10:19;;;;;;;38.30;27.60;;;;;;;2.51;99.85;97309.98;110181;1242;69805;-68
2023/03/03 06:12:53;;;;;;;41.50;27.60;;;;;;;2.59;99.45;97308.30;110103;1245;69879;-67
2023/03/03 06:15:23;;;;;;;40.50;28.70;;;;;;;2.68;99.22;97307.56;110194;1240;59670;-67
2023/03/03 06:17:52;;;;;;;35.90;25.60;;;;;;;2.77;98.75;97306.66;110189;1242;59679;-67
2023/03/03 06:20:21;;;;;;;43.60;29.60;;;;;;;2.87;97.33;97308.80;110244;1241;71966;-67
2023/03/03 06:22:50;;;;;;;36.40;26.40;;;;;;;2.94;97.91;97308.48;110154;1242;69742;-67
2023/03/03 06:25:19;;;;;;;34.60;25.00;;;;;;;3.04;98.21;97311.67;110168;1244;70229;-66
2023/03/03 06:27:48;;;;;;;39.70;28.20;;;;;;;3.14;97.58;97313.30;110182;1242;59804;-66
2023/03/03 06:30:17;;;;;;;36.50;27.70;;;;;;;3.23;96.22;97317.73;110288;1242;60148;-66
2023/03/03 06:32:47;;;;;;;41.70;26.80;;;;;;;3.30;95.17;97311.20;110214;1242;71622;-66
2023/03/03 06:35:17;;;;;;;39.70;27.90;;;;;;;3.38;94.82;97314.97;110243;1242;69212;-66
2023/03/03 06:37:46;;;;;;;;;;;;;;;3.48;94.27;97318.48;110254;1242;69277;-66
2023/03/03 06:40:15;;;;;;;38.60;28.20;;;;;;;3.56;93.95;97313.95;110152;1241;59733;-67
2023/03/03 06:42:45;;;;;;;44.30;32.70;;;;;;;3.67;93.95;97316.59;110095;1244;59692;-67
2023/03/03 06:45:14;;;;;;;48.60;32.60;;;;;;;3.71;93.01;97314.47;110138;1241;71375;-67
2023/03/03 06:47:43;;;;;;;44.20;28.50;;;;;;;3.75;91.86;97315.47;110185;1242;69801;-67
2023/03/03 06:50:12;;;;;;;34.80;24.70;;;;;;;3.83;91.10;97313.73;110275;1242;69854;-67
2023/03/03 06:52:41;;;;;;;38.70;27.40;;;;;;;3.92;90.19;97318.33;110252;1241;60235;-67
2023/03/03 06:55:16;;;;;;;37.70;30.90;;;;;;;4.05;90.10;97319.38;110327;1242;59678;-66
2023/03/03 06:57:45;;;;;;;33.40;25.80;;;;;;;4.07;88.37;97322.93;110407;1242;72009;-67
2023/03/03 07:00:23;;;;;;;34.00;27.60;;;;;;;4.17;87.51;97321.39;110318;1242;69717;-66
2023/03/03 07:03:04;;;;;;;33.70;22.80;;;;;;;4.36;87.78;97325.31;110113;1245;68598;-66
2023/03/03 07:05:33;;;;;;;36.90;26.30;;;;;;;4.49;87.02;97320.17;110188;1242;59747;-66
2023/03/03 07:08:11;;;;;;;36.20;24.90;;;;;;;4.59;85.57;97322.27;110188;1242;59642;-66
2023/03/03 07:10:40;;;;;;;35.90;27.10;;;;;;;4.67;86.11;97322.75;110213;1241;71248;-66
2023/03/03 07:13:16;;;;;;;40.50;29.20;;;;;;;4.82;86.53;97322.66;110164;1242;69879;-68
2023/03/03 07:15:47;;;;;;;42.80;30.30;;;;;;;4.98;85.92;97324.23;110159;1241;69856;-66
2023/03/03 07:18:43;;;;;;;40.20;30.40;;;;;;;4.97;85.64;97327.95;110161;1245;59741;-67
2023/03/03 07:21:15;;;;;;;40.90;26.90;;;;;;;5.13;85.05;97326.95;110646;1242;59679;-66
2023/03/03 07:23:47;;;;;;;41.20;27.60;;;;;;;5.28;84.83;97328.55;110385;1241;70886;-67
2023/03/03 07:26:21;;;;;;;39.50;27.00;;;;;;;5.49;84.74;97332.98;109880;1241;564337;-68
2023/03/03 07:28:57;;;;;;;40.40;28.30;;;;;;;5.65;83.43;97335.58;110232;1244;69294;-67
2023/03/03 07:31:28;;;;;;;41.70;29.00;;;;;;;5.56;82.46;97330.19;110328;1242;59672;-67
2023/03/03 07:33:59;;;;;;;34.50;27.00;;;;;;;5.52;83.26;97330.73;110431;1242;59666;-67
2023/03/03 07:36:36;;;;;;;32.80;25.40;;;;;;;5.64;82.89;97330.48;110318;1242;71437;-67
2023/03/03 07:39:28;;;;;;;31.00;24.30;;;;;;;5.64;82.05;97326.67;110344;1241;68428;-65
2023/03/03 07:42:11;;;;;;;31.70;24.30;;;;;;;5.77;81.85;97326.81;110268;1249;69326;-67
2023/03/03 07:44:40;;;;;;;36.90;26.00;;;;;;;5.85;80.90;97321.87;110188;1242;59721;-67
2023/03/03 07:47:19;;;;;;;36.60;25.60;;;;;;;5.91;80.54;97323.27;110390;1241;59760;-67
2023/03/03 07:49:49;;;;;;;33.90;21.30;;;;;;;5.95;80.28;97324.46;110405;1241;70956;-67
2023/03/03 07:52:37;;;;;;;31.50;22.00;;;;;;;6.06;79.77;97320.01;110480;1242;69686;-67
2023/03/03 07:55:36;;;;;;;32.10;23.20;;;;;;;6.40;79.04;97320.71;110413;1241;69084;-67
2023/03/03 07:58:11;;;;;;;31.00;21.90;;;;;;;6.97;76.12;97316.16;110540;1241;59737;-67
2023/03/03 08:01:17;;;;;;;30.90;22.70;;;;;;;7.50;74.58;97317.57;110570;1241;59692;-66
2023/03/03 08:03:49;;;;;;;25.40;20.00;;;;;;;8.12;74.09;97316.44;110357;1242;71433;-66
2023/03/03 08:06:43;;;;;;;26.50;19.30;;;;;;;8.29;70.39;97316.91;110330;1242;69121;-66
2023/03/03 08:09:28;;;;;;;23.10;18.60;;;;;;;8.81;72.58;97315.95;110255;1242;69865;-66
2023/03/03 08:12:20;;;;;;;26.70;20.20;;;;;;;9.25;73.14;97318.30;110227;1244;59693;-68
2023/03/03 08:14:51;;;;;;;25.50;18.70;;;;;;;9.52;70.83;97318.20;110384;1239;59625;-68
2023/03/03 08:17:30;;;;;;;29.70;20.10;;;;;;;9.63;68.42;97313.90;110393;1244;71480;-66
2023/03/03 08:19:58;;;;;;;27.40;20.30;;;;;;;9.57;66.73;97317.14;110357;1242;69216;-67
2023/03/03 08:22:37;;;;;;;24.70;17.90;;;;;;;9.36;66.14;97317.05;110387;1249;69940;-68
2023/03/03 08:25:06;;;;;;;19.50;15.20;;;;;;;9.23;66.09;97314.48;110200;1241;59763;-68
2023/03/03 08:27:35;;;;;;;20.90;14.80;;;;;;;9.07;66.50;97311.55;110332;1242;59673;-68
2023/03/03 08:30:04;;;;;;;13.20;9.60;;;;;;;8.54;65.67;97312.67;110255;1242;70763;-68
2023/03/03 08:32:34;;;;;;;13.10;10.20;;;;;;;8.28;65.64;97310.94;110187;1242;69104;-70
2023/03/03 08:35:04;;;;;;;17.20;13.50;;;;;;;8.54;66.03;97307.30;110445;1241;69783;-69
2023/03/03 08:37:33;;;;;;;16.50;14.00;;;;;;;8.62;66.29;97309.39;110511;1242;59673;-68
2023/03/03 08:40:02;;;;;;;16.60;11.90;;;;;;;8.45;66.32;97309.09;110221;1242;59689;-70
2023/03/03 08:42:31;;;;;;;18.20;13.00;;;;;;;8.33;67.19;97307.10;110166;1242;72288;-70
2023/03/03 08:45:00;;;;;;;18.40;13.00;;;;;;;8.16;67.57;97311.16;110171;1242;69240;-69
2023/03/03 08:47:29;;;;;;;17.70;12.40;;;;;;;8.14;67.96;97308.36;110131;1242;69349;-68
2023/03/03 08:49:58;;;;;;;15.70;12.20;;;;;;;8.32;68.14;97304.92;110141;1242;59702;-68
2023/03/03 08:52:27;;;;;;;15.40;11.80;;;;;;;8.50;67.52;97304.80;110162;1242;59668;-68
2023/03/03 08:54:56;;;;;;;16.00;11.00;;;;;;;8.53;67.24;97308.42;110155;1242;71165;-68
2023/03/03 08:57:24;;;;;;;15.90;11.80;;;;;;;8.70;67.17;97308.72;110168;1242;69364;-68
2023/03/03 08:59:54;;;;;;;15.80;11.60;;;;;;;8.70;66.73;97307.65;110180;1241;69730;-68
2023/03/03 09:02:23;;;;;;;16.40;12.30;;;;;;;8.75;65.56;97306.14;110167;1242;59689;-68
2023/03/03 09:04:51;;;;;;;18.10;12.40;;;;;;;8.61;65.98;97309.08;110202;1242;59716;-68
2023/03/03 09:07:20;;;;;;;15.20;10.80;;;;;;;8.79;64.60;97303.02;110199;1241;70592;-68
2023/03/03 09:09:49;;;;;;;15.30;11.40;;;;;;;9.11;64.70;97303.81;110231;1242;69555;-68
2023/03/03 09:12:26;;;;;;;17.20;11.70;;;;;;;9.41;63.97;97300.88;110123;1241;69076;-67
2023/03/03 09:15:05;;;;;;;13.20;9.60;;;;;;;9.79;63.31;97294.88;110199;1242;59660;-68
2023/03/03 09:17:36;;;;;;;11.70;8.90;;;;;;;10.11;60.79;97295.18;110154;1242;59604;-68
2023/03/03 09:20:17;;;;;;;14.10;8.90;;;;;;;10.56;61.13;97289.82;110220;1242;71353;-68
2023/03/03 09:22:46;;;;;;;11.40;8.60;;;;;;;11.00;59.28;97286.34;110156;1242;69497;-68
2023/03/03 09:25:35;;;;;;;14.50;9.50;;;;;;;11.33;57.37;97284.36;110170;1242;69728;-68
2023/03/03 09:28:23;;;;;;;14.60;10.50;;;;;;;11.73;57.56;97282.38;110209;1240;59666;-68
2023/03/03 09:30:55;;;;;;;14.60;10.20;;;;;;;12.10;56.11;97280.84;110211;1241;59667;-70
2023/03/03 09:33:43;;;;;;;14.10;9.60;;;;;;;12.20;54.23;97280.89;110221;1241;71852;-69
2023/03/03 09:36:15;;;;;;;14.10;10.30;;;;;;;12.04;53.79;97279.06;110222;1243;69146;-69
2023/03/03 09:38:45;;;;;;;14.30;11.50;;;;;;;12.22;54.18;97278.98;110261;1241;68334;-69
2023/03/03 09:41:51;;;;;;;18.00;12.50;;;;;;;12.59;54.72;97282.08;110156;1248;59734;-70
2023/03/03 09:45:00;;;;;;;14.80;10.50;;;;;;;12.74;51.38;97275.73;110221;1241;59686;-70
2023/03/03 09:47:47;;;;;;;16.60;12.00;;;;;;;13.03;50.17;97277.52;110232;1240;70666;-70
2023/03/03 09:50:43;;;;;;;14.30;9.70;;;;;;;13.60;51.20;97274.90;110305;1242;69846;-69
2023/03/03 09:53:24;;;;;;;11.60;9.10;;;;;;;14.31;48.37;97270.02;110222;1243;68484;-69
2023/03/03 09:56:03;;;;;;;15.70;10.00;;;;;;;14.68;48.59;97268.55;110255;1242;59775;-69
2023/03/03 09:58:58;;;;;;;13.70;9.00;;;;;;;15.07;48.53;97264.65;110216;1242;59682;-70
2023/03/03 10:02:20;;;;;;;11.00;8.80;;;;;;;14.93;43.82;97266.68;110219;1242;71962;-68
2023/03/03 10:04:58;;;;;;;15.10;9.20;;;;;;;14.65;45.05;97260.06;110163;1241;69200;-68
2023/03/03 10:07:39;;;;;;;13.30;9.90;;;;;;;14.24;44.92;97261.66;110221;1240;69858;-68
2023/03/03 10:10:17;;;;;;;12.70;10.60;;;;;;;13.79;45.74;97260.09;110239;1240;59775;-70
2023/03/03 10:13:05;;;;;;;14.00;9.50;;;;;;;13.46;46.99;97259.98;110221;1242;59694;-73
2023/03/03 10:16:09;;;;;;;10.30;8.40;;;;;;;13.19;46.98;97259.19;110241;1242;71597;-70
2023/03/03 10:18:44;;;;;;;10.30;7.30;;;;;;;12.97;47.05;97255.40;110249;1243;69268;-70
2023/03/03 10:21:28;;;;;;;8.10;6.90;;;;;;;12.51;47.16;97251.94;110228;1247;69725;-69
2023/03/03 10:24:13;;;;;;;8.70;6.50;;;;;;;12.17;46.83;97245.83;110183;1240;59690;-69
2023/03/03 10:27:09;;;;;;;8.50;6.60;;;;;;;11.95;46.91;97239.98;110218;1245;59681;-69
2023/03/03 10:29:42;;;;;;;;;;;;;;;11.70;48.08;97238.61;110230;1240;71324;-69
2023/03/03 10:32:48;;;;;;;9.30;5.90;;;;;;;11.62;48.71;97237.55;110232;1250;69822;-69
2023/03/03 10:35:35;;;;;;;8.50;6.70;;;;;;;11.57;48.35;97227.44;110199;1242;69911;-69
2023/03/03 10:38:23;;;;;;;11.30;7.30;;;;;;;11.28;49.84;97226.76;110266;1242;59809;-69
2023/03/03 10:41:04;;;;;;;11.10;8.00;;;;;;;11.18;50.72;97224.73;110255;1243;59740;-70
2023/03/03 10:43:44;;;;;;;10.60;7.40;;;;;;;11.10;51.35;97224.70;110227;1240;70487;-69
2023/03/03 10:46:51;;;;;;;10.30;8.10;;;;;;;11.01;51.29;97221.03;110146;1243;69556;-69
2023/03/03 10:49:38;;;;;;;10.00;6.90;;;;;;;11.07;51.53;97216.56;110202;1242;68541;-69
2023/03/03 10:52:20;;;;;;;12.60;7.60;;;;;;;11.09;50.99;97212.71;110204;1242;59741;-70
2023/03/03 10:55:00;;;;;;;12.80;8.50;;;;;;;11.00;50.94;97202.66;110203;1241;59602;-70
2023/03/03 10:57:51;;;;;;;12.80;7.60;;;;;;;10.86;51.35;97206.65;110228;1242;71957;-70
2023/03/03 11:00:29;;;;;;;9.10;6.80;;;;;;;10.74;51.73;97200.96;110304;1241;69098;-68
2023/03/03 11:03:03;;;;;;;12.10;7.60;;;;;;;10.50;52.16;97201.23;110227;1242;69242;-68
2023/03/03 11:05:42;;;;;;;9.50;6.80;;;;;;;10.37;52.70;97198.23;110195;1241;59698;-69
2023/03/03 11:08:27;;;;;;;12.50;7.70;;;;;;;10.35;53.34;97195.27;110193;1242;59667;-68
2023/03/03 11:11:17;;;;;;;12.30;7.30;;;;;;;10.39;53.85;97191.80;110303;1242;71914;-70
2023/03/03 11:13:49;;;;;;;;;;;;;;;10.30;53.54;97186.90;110164;1242;69422;-70
2023/03/03 11:16:49;;;;;;;11.50;8.20;;;;;;;10.36;53.56;97183.67;110189;1240;68375;-68
2023/03/03 11:19:23;;;;;;;14.20;7.70;;;;;;;10.44;53.34;97180.58;110142;1242;59731;-69
2023/03/03 11:22:11;;;;;;;12.20;8.10;;;;;;;10.51;53.05;97179.55;110227;1242;59678;-69
2023/03/03 11:24:42;;;;;;;10.40;7.70;;;;;;;10.64;53.17;97177.48;110149;1243;71860;-69
2023/03/03 11:27:33;;;;;;;10.90;8.00;;;;;;;10.76;53.60;97176.42;110248;1242;68613;-69
2023/03/03 11:30:15;;;;;;;9.00;6.60;;;;;;;10.84;52.28;97165.73;110123;1243;69234;-70
2023/03/03 11:33:03;;;;;;;11.10;7.50;;;;;;;11.08;52.66;97165.56;110232;1241;59823;-68
2023/03/03 11:35:47;;;;;;;10.30;7.70;;;;;;;11.65;51.67;97161.55;110157;1241;59729;-68
2023/03/03 11:38:34;;;;;;;8.70;6.80;;;;;;;12.48;49.82;97157.98;110181;1242;71353;-69
2023/03/03 11:41:18;;;;;;;10.40;6.80;;;;;;;13.31;47.99;97151.88;110176;1242;69238;-68
2023/03/03 11:43:52;;;;;;;8.00;5.70;;;;;;;13.79;45.22;97146.58;110142;1242;69256;-69
2023/03/03 11:46:35;;;;;;;7.10;5.30;;;;;;;14.47;44.08;97144.77;110129;1242;59705;-68
2023/03/03 11:49:14;;;;;;;8.50;5.90;;;;;;;15.60;42.42;97140.90;110152;1242;59718;-68
2023/03/03 11:52:21;;;;;;;8.60;5.20;;;;;;;16.07;39.58;97139.08;110162;1242;71769;-68
2023/03/03 11:54:53;;;;;;;6.80;5.40;;;;;;;16.31;37.16;97141.98;109869;1240;69557;-69
2023/03/03 11:57:37;;;;;;;8.30;5.50;;;;;;;16.37;36.32;97133.80;110149;1243;69869;-69